Aérodrome :
LOGIN :

S'inscrire | Disclaimer

   EN    FR    IT 

 










Légende :    VFR   VFR Marginal   IFR   IFR Intensif   IFR Très Intensif
Visi : 
Plafond : 
>= 8 km
>= 3000ft
5 à 8 km
1000 à 3000 ft
1500m à 5 km
500 à 1000 ft
800 à 1500m
200 à 500 ft
< 800m
< 200 ft
Symboles :   Orages  Brouillard  Fortes neiges  Fortes précipitations  Vent > 20 kt
SIGMETs :   Divers  Orages  Givrage  Turbulence  Onde Orograph.  Cendres Volcan.







- Altitude de l'aérodrome : 580 ft
- Voir les cartes d'approche


LFOA - Avord

DERNIER METAR :
  • 251130Z AUTO 04012KT 360V060 9999 SCT048 22/10 Q1022 NOSIG

METARs EXPIRÉS :
  • 251100Z AUTO 05015KT 020V080 9999 SCT046 22/10 Q1022 TEMPO 04010G20KT
  • 251030Z AUTO 06012KT 030V090 9999 FEW046/// 22/10 Q1022 NOSIG
  • 251000Z AUTO 05012KT 9999 FEW044 21/10 Q1022 NOSIG
  • 250930Z AUTO 05013KT 010V080 9999 FEW041 21/10 Q1022 NOSIG
  • 250900Z AUTO 04013KT 9999 FEW040 20/09 Q1022 NOSIG

TAF TAF LFOA
Valide du 25 à 09h jusqu'au 26 à 09h UTC


250800Z 2509/2609 05010KT CAVOK
TEMPO 2511/2517 04010G20KT
Pas de NOTAMs connus pour ce terrain.



MET'MAP, la Météo Aéronautique d'un coup d'oeil ! - Copyright ORBIFLY Décembre 2007 - Disclaimer

ORBIFLY MET'MAP TEAM :

Programmation & Développement : Alexandra Zaïnal
Conception & Développement : Baudouin d'Aumeries
Co-Programmation & Développement : Marc-Olivier Méhu
Soutien technique & logistique : Manuel Goepfert

Contact : metmap@orbifly.com




SOURCES & CREDITS :

   NOAA